createdAt,value
2019-04-05T00:02:01.185Z,6.38
2019-04-05T00:04:31.540Z,6.07
2019-04-05T00:07:02.283Z,5.95
2019-04-05T00:09:32.823Z,5.72
2019-04-05T00:12:03.106Z,5.82
2019-04-05T00:14:33.922Z,5.55
2019-04-05T00:17:06.022Z,5.51
2019-04-05T00:19:37.328Z,5.76
2019-04-05T00:22:07.743Z,6.08
2019-04-05T00:24:38.398Z,5.78
2019-04-05T00:27:08.736Z,5.92
2019-04-05T00:29:40.158Z,6.02
2019-04-05T00:32:10.615Z,5.89
2019-04-05T00:34:41.442Z,6.12
2019-04-05T00:37:12.164Z,6.03
2019-04-05T00:39:42.900Z,5.96
2019-04-05T00:42:13.604Z,5.82
2019-04-05T00:44:44.300Z,5.81
2019-04-05T00:47:14.582Z,5.92
2019-04-05T00:49:45.094Z,5.95
2019-04-05T00:52:15.838Z,5.93
2019-04-05T00:54:46.223Z,5.87
2019-04-05T00:57:16.630Z,6.22
2019-04-05T00:59:47.558Z,6.14
2019-04-05T01:02:18.032Z,6.32
2019-04-05T01:04:48.620Z,4.36
2019-04-05T01:07:18.913Z,6.35
2019-04-05T01:09:49.512Z,6.46
2019-04-05T01:12:22.185Z,6.62
2019-04-05T01:14:53.609Z,6.51
2019-04-05T01:17:25.227Z,6.62
2019-04-05T01:19:59.928Z,6.60
2019-04-05T01:22:32.078Z,6.79
2019-04-05T01:25:03.107Z,6.81
2019-04-05T01:27:35.172Z,6.96
2019-04-05T01:30:06.956Z,6.87
2019-04-05T01:32:37.261Z,6.90
2019-04-05T01:35:08.341Z,6.91
2019-04-05T01:37:39.008Z,6.86
2019-04-05T01:40:11.381Z,6.95
2019-04-05T01:42:42.635Z,6.97
2019-04-05T01:45:13.165Z,6.85
2019-04-05T01:47:43.869Z,7.11
2019-04-05T01:50:14.628Z,7.10
2019-04-05T01:52:45.403Z,6.67
2019-04-05T01:55:16.565Z,6.16
2019-04-05T01:57:47.226Z,6.13
2019-04-05T02:00:18.063Z,6.19
2019-04-05T02:02:48.791Z,6.09
2019-04-05T02:05:19.922Z,6.13
2019-04-05T02:07:50.209Z,5.68
2019-04-05T02:10:21.102Z,5.62
2019-04-05T02:12:51.697Z,5.76
2019-04-05T02:15:27.582Z,5.18
2019-04-05T02:17:58.897Z,5.12
2019-04-05T02:20:29.366Z,4.74
2019-04-05T02:23:00.145Z,4.59
2019-04-05T02:25:30.859Z,4.81
2019-04-05T02:28:01.141Z,4.72
2019-04-05T02:30:31.799Z,4.86
2019-04-05T02:33:02.541Z,5.00
2019-04-05T02:35:32.921Z,4.81
2019-04-05T02:38:03.240Z,4.63
2019-04-05T02:40:35.784Z,4.58
2019-04-05T02:43:07.639Z,4.86
2019-04-05T02:45:40.187Z,4.91
2019-04-05T02:48:13.679Z,4.78
2019-04-05T02:50:47.042Z,4.38
2019-04-05T02:53:20.121Z,4.47
2019-04-05T02:55:51.306Z,4.25
2019-04-05T02:58:22.399Z,4.40
2019-04-05T03:00:53.851Z,4.39
2019-04-05T03:03:24.804Z,4.56
2019-04-05T03:05:56.074Z,4.83
2019-04-05T03:08:27.484Z,4.19
2019-04-05T03:11:10.819Z,4.13
2019-04-05T03:13:52.289Z,4.28
2019-04-05T03:16:39.468Z,4.62
2019-04-05T03:19:05.418Z,4.49
2019-04-05T03:21:39.037Z,4.08
2019-04-05T03:24:12.942Z,2.06
2019-04-05T03:26:46.930Z,3.89
2019-04-05T03:29:17.738Z,3.95
2019-04-05T03:31:48.518Z,4.13
2019-04-05T03:34:19.190Z,4.41
2019-04-05T03:36:51.817Z,4.30
2019-04-05T03:39:23.788Z,4.06
2019-04-05T03:41:55.065Z,4.02
2019-04-05T03:44:27.072Z,4.16
2019-04-05T03:46:58.083Z,3.81
2019-04-05T03:49:29.972Z,3.74
2019-04-05T03:52:02.119Z,3.74
2019-04-05T03:54:33.068Z,3.91
2019-04-05T03:57:03.852Z,3.81
2019-04-05T03:59:34.486Z,3.55
2019-04-05T04:02:05.106Z,3.66
2019-04-05T04:04:35.742Z,3.94
2019-04-05T04:07:06.990Z,4.19
2019-04-05T04:09:37.370Z,3.98
2019-04-05T04:12:07.892Z,3.91
2019-04-05T04:14:38.910Z,3.87
2019-04-05T04:17:12.603Z,4.03
2019-04-05T04:19:41.558Z,3.84
2019-04-05T04:22:31.378Z,3.85
2019-04-05T04:25:02.055Z,4.19
2019-04-05T04:27:32.485Z,4.19
2019-04-05T04:30:03.094Z,3.92
2019-04-05T04:32:34.651Z,3.97
2019-04-05T04:35:05.188Z,4.09
2019-04-05T04:37:36.475Z,4.15
2019-04-05T04:40:07.331Z,4.23
2019-04-05T04:42:39.057Z,4.33
2019-04-05T04:45:12.349Z,4.18
2019-04-05T04:47:42.176Z,4.07
2019-04-05T04:50:13.085Z,4.31
2019-04-05T04:52:45.647Z,4.68
2019-04-05T04:55:16.148Z,4.81
2019-04-05T04:57:47.883Z,4.89
2019-04-05T05:00:19.034Z,5.01
2019-04-05T05:02:49.678Z,4.91
2019-04-05T05:05:21.118Z,4.97
2019-04-05T05:07:52.272Z,4.68
2019-04-05T05:10:22.648Z,4.82
2019-04-05T05:12:53.224Z,4.72
2019-04-05T05:15:27.110Z,4.97
2019-04-05T05:17:58.722Z,5.32
2019-04-05T05:20:29.212Z,5.15
2019-04-05T05:23:00.149Z,4.98
2019-04-05T05:25:30.997Z,5.55
2019-04-05T05:28:02.908Z,5.63
2019-04-05T05:30:33.593Z,5.76
2019-04-05T05:33:04.665Z,5.93
2019-04-05T05:35:35.575Z,6.00
2019-04-05T05:38:05.992Z,6.04
2019-04-05T05:40:36.403Z,6.12
2019-04-05T05:43:07.276Z,6.41
2019-04-05T05:45:37.657Z,6.42
2019-04-05T05:48:08.484Z,6.61
2019-04-05T05:50:39.266Z,6.98
2019-04-05T05:53:09.856Z,6.93
2019-04-05T05:55:40.644Z,7.06
2019-04-05T05:58:10.968Z,7.11
2019-04-05T06:00:41.387Z,7.04
2019-04-05T06:03:13.183Z,7.27
2019-04-05T06:05:43.488Z,7.55
2019-04-05T06:08:13.805Z,7.36
2019-04-05T06:10:44.539Z,7.81
2019-04-05T06:13:15.056Z,7.82
2019-04-05T06:15:45.347Z,7.90
2019-04-05T06:18:16.073Z,7.92
2019-04-05T06:20:46.954Z,8.05
2019-04-05T06:23:17.271Z,8.17
2019-04-05T06:25:47.921Z,8.31
2019-04-05T06:28:18.253Z,8.43
2019-04-05T06:30:49.117Z,8.41
2019-04-05T06:33:30.986Z,8.72
2019-04-05T06:35:51.876Z,8.73
2019-04-05T06:38:22.686Z,9.03
2019-04-05T06:40:53.065Z,8.93
2019-04-05T06:43:23.487Z,8.82
2019-04-05T06:45:54.318Z,9.10
2019-04-05T06:48:24.900Z,9.03
2019-04-05T06:50:55.165Z,8.99
2019-04-05T06:53:25.737Z,9.14
2019-04-05T06:55:59.497Z,9.26
2019-04-05T06:58:29.573Z,9.30
2019-04-05T07:01:00.349Z,9.34
2019-04-05T07:03:30.844Z,9.63
2019-04-05T07:06:01.537Z,9.51
2019-04-05T07:08:32.251Z,9.43
2019-04-05T07:11:02.985Z,9.78
2019-04-05T07:13:33.566Z,9.95
2019-04-05T07:16:04.353Z,10.06
2019-04-05T07:18:36.310Z,10.00
2019-04-05T07:21:06.915Z,9.86
2019-04-05T07:23:37.529Z,10.18
2019-04-05T07:26:07.905Z,10.24
2019-04-05T07:28:38.239Z,10.44
2019-04-05T07:31:08.887Z,10.40
2019-04-05T07:33:39.449Z,10.72
2019-04-05T07:36:10.042Z,11.00
2019-04-05T07:38:40.377Z,11.25
2019-04-05T07:41:10.670Z,11.28
2019-04-05T07:43:41.242Z,11.46
2019-04-05T07:46:11.699Z,11.75
2019-04-05T07:48:44.943Z,12.20
2019-04-05T07:51:14.437Z,12.07
2019-04-05T07:53:44.950Z,12.07
2019-04-05T07:56:15.227Z,12.44
2019-04-05T07:58:46.384Z,12.75
2019-04-05T08:01:17.155Z,12.98
2019-04-05T08:03:47.710Z,13.10
2019-04-05T08:06:18.087Z,13.05
2019-04-05T08:08:56.997Z,13.17
2019-04-05T08:11:30.526Z,13.21
2019-04-05T08:14:02.668Z,13.49
2019-04-05T08:16:33.011Z,13.57
2019-04-05T08:19:03.847Z,13.98
2019-04-05T08:21:34.582Z,14.00
2019-04-05T08:24:05.031Z,13.85
2019-04-05T08:26:36.638Z,14.00
2019-04-05T08:29:07.633Z,13.82
2019-04-05T08:31:38.030Z,14.12
2019-04-05T08:34:08.648Z,14.06
2019-04-05T08:36:39.449Z,14.08
2019-04-05T08:39:11.131Z,14.54
2019-04-05T08:41:41.423Z,14.94
2019-04-05T08:44:12.417Z,14.91
2019-04-05T08:46:42.732Z,14.99
2019-04-05T08:49:13.207Z,15.01
2019-04-05T08:51:43.852Z,14.59
2019-04-05T08:54:14.365Z,14.52
2019-04-05T08:56:44.657Z,15.06
2019-04-05T08:59:15.543Z,15.18
2019-04-05T09:01:46.157Z,15.18
2019-04-05T09:04:16.589Z,15.30
2019-04-05T09:06:47.048Z,15.31
2019-04-05T09:09:17.397Z,15.60
2019-04-05T09:11:48.098Z,15.38
2019-04-05T09:14:20.832Z,15.81
2019-04-05T09:16:50.692Z,15.45
2019-04-05T09:19:23.824Z,15.50
2019-04-05T09:21:53.685Z,15.71
2019-04-05T09:24:24.012Z,15.31
2019-04-05T09:26:54.877Z,15.62
2019-04-05T09:29:25.659Z,15.79
2019-04-05T09:31:55.960Z,15.94
2019-04-05T09:34:26.507Z,15.93
2019-04-05T09:36:56.879Z,15.78
2019-04-05T09:39:27.228Z,15.01
2019-04-05T09:41:57.823Z,15.12
2019-04-05T09:44:28.331Z,15.84
2019-04-05T09:46:58.905Z,15.95
2019-04-05T09:49:36.752Z,16.04
2019-04-05T09:52:01.914Z,15.84
2019-04-05T09:54:32.361Z,15.88
2019-04-05T09:57:02.972Z,15.06
2019-04-05T09:59:33.443Z,15.82
2019-04-05T10:02:03.754Z,15.90
2019-04-05T10:04:34.317Z,15.80
2019-04-05T10:07:05.691Z,15.79
2019-04-05T10:09:36.048Z,16.12
2019-04-05T10:12:06.504Z,15.81
2019-04-05T10:14:37.174Z,15.91
2019-04-05T10:17:07.798Z,16.14
2019-04-05T10:19:49.217Z,16.18
2019-04-05T10:22:10.498Z,16.06
2019-04-05T10:24:41.182Z,16.24
2019-04-05T10:27:11.499Z,16.42
2019-04-05T10:29:41.841Z,16.54
2019-04-05T10:32:12.542Z,16.39
2019-04-05T10:34:42.987Z,16.38
2019-04-05T10:37:13.312Z,16.52
2019-04-05T10:39:44.106Z,16.53
2019-04-05T10:42:31.172Z,16.59
2019-04-05T10:45:01.842Z,16.51
2019-04-05T10:47:32.187Z,16.60
2019-04-05T10:50:03.722Z,16.57
2019-04-05T10:52:34.622Z,16.44
2019-04-05T10:55:05.708Z,16.74
2019-04-05T10:57:36.240Z,16.74
2019-04-05T11:00:10.060Z,16.53
2019-04-05T11:02:40.541Z,16.94
2019-04-05T11:05:11.139Z,17.16
2019-04-05T11:07:41.779Z,17.36
2019-04-05T11:10:13.620Z,17.64
2019-04-05T11:12:44.018Z,17.73
2019-04-05T11:15:15.258Z,18.22
2019-04-05T11:17:45.790Z,18.22
2019-04-05T11:20:23.825Z,17.90
2019-04-05T11:22:50.088Z,18.17
2019-04-05T11:25:21.281Z,18.16
2019-04-05T11:27:53.257Z,18.22
2019-04-05T11:30:41.124Z,18.07
2019-04-05T11:33:11.618Z,18.22
2019-04-05T11:35:42.156Z,18.24
2019-04-05T11:38:14.610Z,18.53
2019-04-05T11:40:46.629Z,18.62
2019-04-05T11:43:18.339Z,18.37
2019-04-05T11:45:50.822Z,18.40
2019-04-05T11:48:21.673Z,18.03
2019-04-05T11:50:52.430Z,18.17
2019-04-05T11:53:22.941Z,18.43
2019-04-05T11:55:53.527Z,18.20
2019-04-05T11:58:24.321Z,18.20
2019-04-05T12:01:23.622Z,18.21
2019-04-05T12:03:54.405Z,18.22
2019-04-05T12:06:25.719Z,18.45
2019-04-05T12:08:56.051Z,18.34
2019-04-05T12:11:26.339Z,18.27
2019-04-05T12:13:57.047Z,18.72
2019-04-05T12:16:27.624Z,18.58
2019-04-05T12:18:59.020Z,18.87
2019-04-05T12:21:29.846Z,18.83
2019-04-05T12:24:00.479Z,18.80
2019-04-05T12:26:34.485Z,18.90
2019-04-05T12:29:04.996Z,18.57
2019-04-05T12:31:35.267Z,18.18
2019-04-05T12:34:05.825Z,18.58
2019-04-05T12:36:36.563Z,18.78
2019-04-05T12:39:08.639Z,18.87
2019-04-05T12:41:40.864Z,18.00
2019-04-05T12:44:15.257Z,18.09
2019-04-05T12:46:45.839Z,17.40
2019-04-05T12:49:15.958Z,18.26
2019-04-05T12:51:46.751Z,18.26
2019-04-05T12:54:17.140Z,18.19
2019-04-05T12:56:47.678Z,18.53
2019-04-05T12:59:18.362Z,18.94
2019-04-05T13:01:48.657Z,18.96
2019-04-05T13:04:20.672Z,19.15
2019-04-05T13:06:53.010Z,19.07
2019-04-05T13:09:24.667Z,19.18
2019-04-05T13:11:57.403Z,19.18
2019-04-05T13:14:27.722Z,19.55
2019-04-05T13:17:01.701Z,19.96
2019-04-05T13:19:30.625Z,19.57
2019-04-05T13:22:02.870Z,20.06
2019-04-05T13:24:34.464Z,19.84
2019-04-05T13:27:05.055Z,19.96
2019-04-05T13:29:35.739Z,19.94
2019-04-05T13:32:06.006Z,19.96
2019-04-05T13:34:36.906Z,19.95
2019-04-05T13:37:19.597Z,20.10
2019-04-05T13:39:40.691Z,19.66
2019-04-05T13:42:11.361Z,19.76
2019-04-05T13:44:41.938Z,19.26
2019-04-05T13:47:12.278Z,19.48
2019-04-05T13:49:43.344Z,19.73
2019-04-05T13:52:13.896Z,19.61
2019-04-05T13:54:44.535Z,19.12
2019-04-05T13:57:14.871Z,19.58
2019-04-05T13:59:45.337Z,19.61
2019-04-05T14:02:15.714Z,19.58
2019-04-05T14:04:46.253Z,19.15
2019-04-05T14:07:16.556Z,19.44
2019-04-05T14:09:47.312Z,19.25
2019-04-05T14:12:18.070Z,19.18
2019-04-05T14:14:51.306Z,19.08
2019-04-05T14:17:20.528Z,19.27
2019-04-05T14:19:51.200Z,18.70
2019-04-05T14:22:22.484Z,18.93
2019-04-05T14:24:56.667Z,18.85
2019-04-05T14:27:26.712Z,18.79
2019-04-05T14:29:57.266Z,18.65
2019-04-05T14:32:27.823Z,18.67
2019-04-05T14:34:58.157Z,18.55
2019-04-05T14:37:28.550Z,18.51
2019-04-05T14:40:00.489Z,18.67
2019-04-05T14:42:30.851Z,18.78
2019-04-05T14:45:01.436Z,18.58
2019-04-05T14:47:32.005Z,18.77
2019-04-05T14:50:02.519Z,18.88
2019-04-05T14:52:33.964Z,18.45
2019-04-05T14:55:05.145Z,18.66
2019-04-05T14:57:36.571Z,18.83
2019-04-05T15:00:08.305Z,18.91
2019-04-05T15:02:39.128Z,18.81
2019-04-05T15:05:09.904Z,18.88
2019-04-05T15:07:40.543Z,19.13
2019-04-05T15:10:11.074Z,19.07
2019-04-05T15:12:41.397Z,19.13
2019-04-05T15:15:13.166Z,19.04
2019-04-05T15:17:48.237Z,19.11
2019-04-05T15:20:17.076Z,19.06
2019-04-05T15:22:47.722Z,19.18
2019-04-05T15:25:21.580Z,19.14
2019-04-05T15:27:55.400Z,18.99
2019-04-05T15:30:26.520Z,18.92
2019-04-05T15:32:58.708Z,18.82
2019-04-05T15:35:30.171Z,18.72
2019-04-05T15:38:02.149Z,18.65
2019-04-05T15:40:32.717Z,18.50
2019-04-05T15:43:03.503Z,17.75
2019-04-05T15:45:34.283Z,17.97
2019-04-05T15:48:04.570Z,18.11
2019-04-05T15:50:35.264Z,18.16
2019-04-05T15:53:05.653Z,18.17
2019-04-05T15:55:36.081Z,17.91
2019-04-05T15:58:06.465Z,17.91
2019-04-05T16:00:46.557Z,18.11
2019-04-05T16:03:17.166Z,18.21
2019-04-05T16:05:47.572Z,18.21
2019-04-05T16:08:19.549Z,18.32
2019-04-05T16:10:50.227Z,17.87
2019-04-05T16:13:20.980Z,18.15
2019-04-05T16:15:51.430Z,18.14
2019-04-05T16:18:21.926Z,18.00
2019-04-05T16:20:52.638Z,17.78
2019-04-05T16:23:22.950Z,17.78
2019-04-05T16:25:53.333Z,17.63
2019-04-05T16:28:24.091Z,17.48
2019-04-05T16:30:54.462Z,17.60
2019-04-05T16:33:24.956Z,17.49
2019-04-05T16:35:55.524Z,17.03
2019-04-05T16:38:26.023Z,17.23
2019-04-05T16:40:56.779Z,17.11
2019-04-05T16:43:27.370Z,16.98
2019-04-05T16:45:57.711Z,16.71
2019-04-05T16:48:28.607Z,16.68
2019-04-05T16:50:58.917Z,16.42
2019-04-05T16:53:29.433Z,16.25
2019-04-05T16:55:59.888Z,16.18
2019-04-05T16:58:30.305Z,16.08
2019-04-05T17:01:00.625Z,15.99
2019-04-05T17:03:32.181Z,15.87
2019-04-05T17:06:02.559Z,15.73
2019-04-05T17:08:32.979Z,15.67
2019-04-05T17:11:03.555Z,15.61
2019-04-05T17:13:34.174Z,15.58
2019-04-05T17:16:04.759Z,15.55
2019-04-05T17:18:35.183Z,15.42
2019-04-05T17:21:05.573Z,15.32
2019-04-05T17:23:36.089Z,15.09
2019-04-05T17:26:06.529Z,14.43
2019-04-05T17:28:37.165Z,14.51
2019-04-05T17:31:07.767Z,14.20
2019-04-05T17:33:38.130Z,14.40
2019-04-05T17:36:08.571Z,14.34
2019-04-05T17:38:39.136Z,14.59
2019-04-05T17:41:09.780Z,14.35
2019-04-05T17:43:40.465Z,14.33
2019-04-05T17:46:11.048Z,14.38
2019-04-05T17:48:41.806Z,14.14
2019-04-05T17:51:12.337Z,13.97
2019-04-05T17:53:42.688Z,13.96
2019-04-05T17:56:14.697Z,14.00
2019-04-05T17:58:45.423Z,13.76
2019-04-05T18:01:15.811Z,13.74
2019-04-05T18:03:46.318Z,13.85
2019-04-05T18:06:16.957Z,13.95
2019-04-05T18:08:47.251Z,13.83
2019-04-05T18:11:18.018Z,13.74
2019-04-05T18:13:48.551Z,13.59
2019-04-05T18:16:18.986Z,13.51
2019-04-05T18:18:49.339Z,13.23
2019-04-05T18:21:19.733Z,12.72
2019-04-05T18:23:50.363Z,12.61
2019-04-05T18:26:21.015Z,12.96
2019-04-05T18:28:52.265Z,12.89
2019-04-05T18:31:23.113Z,12.71
2019-04-05T18:33:53.812Z,12.32
2019-04-05T18:36:24.500Z,12.02
2019-04-05T18:38:54.859Z,11.82
2019-04-05T18:41:25.525Z,11.63
2019-04-05T18:43:55.884Z,11.52
2019-04-05T18:46:26.448Z,11.53
2019-04-05T18:48:57.056Z,11.67
2019-04-05T18:51:27.916Z,11.81
2019-04-05T18:53:58.312Z,11.95
2019-04-05T18:56:28.661Z,11.98
2019-04-05T18:58:59.199Z,11.44
2019-04-05T19:01:29.868Z,11.56
2019-04-05T19:04:00.209Z,11.42
2019-04-05T19:06:30.563Z,11.23
2019-04-05T19:09:01.123Z,11.29
2019-04-05T19:11:33.262Z,10.99
2019-04-05T19:14:03.559Z,10.77
2019-04-05T19:16:34.425Z,10.79
2019-04-05T19:19:05.167Z,10.62
2019-04-05T19:21:35.603Z,10.42
2019-04-05T19:24:06.298Z,10.46
2019-04-05T19:26:36.649Z,10.47
2019-04-05T19:29:07.309Z,10.40
2019-04-05T19:49:23.731Z,9.81
2019-04-05T19:51:54.183Z,9.65
2019-04-05T19:54:26.392Z,9.69
2019-04-05T19:56:56.891Z,9.76
2019-04-05T19:59:27.446Z,9.49
2019-04-05T20:01:57.779Z,9.33
2019-04-05T20:04:29.891Z,9.31
2019-04-05T20:07:00.659Z,9.40
2019-04-05T20:09:31.360Z,9.67
2019-04-05T20:12:03.526Z,9.75
2019-04-05T20:14:34.248Z,9.89
2019-04-05T20:17:04.810Z,9.56
2019-04-05T20:19:35.171Z,9.52
2019-04-05T20:22:05.774Z,9.57
2019-04-05T20:24:36.152Z,9.37
2019-04-05T20:27:06.598Z,9.33
2019-04-05T20:29:36.908Z,9.24
2019-04-05T20:32:08.041Z,9.28
2019-04-05T20:34:38.691Z,9.10
2019-04-05T20:37:09.099Z,9.00
2019-04-05T20:39:39.524Z,8.91
2019-04-05T20:42:10.242Z,8.75
2019-04-05T20:44:40.591Z,8.68
2019-04-05T20:47:11.010Z,8.53
2019-04-05T20:49:41.463Z,8.61
2019-04-05T20:52:11.910Z,8.84
2019-04-05T20:54:42.338Z,8.80
2019-04-05T20:57:15.426Z,8.78
2019-04-05T20:59:45.881Z,8.75
2019-04-05T21:02:16.899Z,8.98
2019-04-05T21:04:48.491Z,8.67
2019-04-05T21:07:18.879Z,8.50
2019-04-05T21:09:49.549Z,8.26
2019-04-05T21:12:19.955Z,8.32
2019-04-05T21:14:50.558Z,8.43
2019-04-05T21:17:21.548Z,8.33
2019-04-05T21:19:52.087Z,8.38
2019-04-05T21:22:22.618Z,8.54
2019-04-05T21:24:53.391Z,8.52
2019-04-05T21:27:24.083Z,8.49
2019-04-05T21:29:54.455Z,8.73
2019-04-05T21:32:25.069Z,8.71
2019-04-05T21:34:56.658Z,8.79
2019-04-05T21:37:26.989Z,8.65
2019-04-05T21:39:57.409Z,8.25
2019-04-05T21:42:27.821Z,8.16
2019-04-05T21:44:58.105Z,8.22
2019-04-05T21:47:28.492Z,8.35
2019-04-05T21:49:59.127Z,8.03
2019-04-05T21:52:29.450Z,7.84
2019-04-05T21:54:59.736Z,7.83
2019-04-05T21:57:31.507Z,7.89
2019-04-05T22:00:02.023Z,7.99
2019-04-05T22:02:34.518Z,7.90
2019-04-05T22:05:05.557Z,7.82
2019-04-05T22:07:35.883Z,7.74
2019-04-05T22:10:07.013Z,7.76
2019-04-05T22:12:37.469Z,8.03
2019-04-05T22:15:07.939Z,7.82
2019-04-05T22:17:38.503Z,7.90
2019-04-05T22:20:09.316Z,7.74
2019-04-05T22:22:39.634Z,7.76
2019-04-05T22:25:10.633Z,7.90
2019-04-05T22:27:41.297Z,7.78
2019-04-05T22:30:11.677Z,7.85
2019-04-05T22:32:42.618Z,8.24
2019-04-05T22:35:13.969Z,8.16
2019-04-05T22:37:44.550Z,8.27
2019-04-05T22:40:15.405Z,8.46
2019-04-05T22:42:45.727Z,8.65
2019-04-05T22:45:16.112Z,8.58
2019-04-05T22:47:46.497Z,8.58
2019-04-05T22:50:16.986Z,8.43
2019-04-05T22:52:47.504Z,8.22
2019-04-05T22:55:18.143Z,8.18
2019-04-05T22:57:48.624Z,8.27
2019-04-05T23:00:19.078Z,8.25
2019-04-05T23:02:53.243Z,8.32
2019-04-05T23:05:24.504Z,8.24
2019-04-05T23:07:55.206Z,8.29
2019-04-05T23:10:25.503Z,7.82
2019-04-05T23:12:56.173Z,7.97
2019-04-05T23:15:27.514Z,7.72
2019-04-05T23:17:57.797Z,7.97
2019-04-05T23:20:28.139Z,7.94
2019-04-05T23:22:58.806Z,8.18
2019-04-05T23:25:29.356Z,8.06
2019-04-05T23:27:59.729Z,8.09
2019-04-05T23:30:31.226Z,8.02
2019-04-05T23:33:01.562Z,7.64
2019-04-05T23:35:31.875Z,7.42
2019-04-05T23:38:02.594Z,6.99
2019-04-05T23:40:34.050Z,6.92
2019-04-05T23:43:04.887Z,6.90
2019-04-05T23:45:35.205Z,6.84
2019-04-05T23:48:05.512Z,6.59
2019-04-05T23:50:36.324Z,6.54
2019-04-05T23:53:06.603Z,6.56
2019-04-05T23:55:36.938Z,6.47
2019-04-05T23:58:07.724Z,6.32
